首页
METAR-TAF:

METAR-TAF

机场 :

Fort Nelson, 不列颠哥伦比亚, 加拿大

纬度: 58-50N, 经度: 122-35W, 海拔: 382米

当前天气观测

该预报发布于21分钟前的14:00 UTC
静风
温度 10°C
湿度 93%
气压 1005 hPa
能見度: 48.3公里
少量云层高于100英尺
散云层高于7000英尺
多云层高于12000英尺

METAR: CYYE 121400Z 00000KT 30SM FEW001 SCT070 BKN120 10/09 A2967 RMK SF1AC4AC1 SF TR VIRGA N SLP059 DENSITY ALT 1300FT

时间: 07:21 (14:21 UTC)

预报

该预报发布于1小时和37分钟前的12:44 UTC
预报有效从12日的 13点(UTC)到 13日的 01点(UTC)
风速3节,风向多变
能見度: 10公里
多云层高于6000英尺
短暂存在
从 12日的 13点(UTC)到 12日的 16点(UTC)
能見度: 10公里
阴天层高于5000英尺
小雨
几率 30%
从 12日的 13点(UTC)到 12日的 16点(UTC)
能見度: 1.6公里
轻雾
从 12日的 1600点(UTC)
风速3节,风向多变
能見度: 10公里
散云层高于6000英尺
短暂存在
从 12日的 19点(UTC)到 13日的 01点(UTC)
能見度: 10公里
散云层高于4000英尺, 积雨云.
多云层高于6000英尺
小阵雨, 附近有雷暴

TAF: CYYE 121244Z 1213/1301 VRB03KT P6SM BKN060 TEMPO 1213/1216 P6SM -RA OVC050 PROB30 1213/1216 1SM BR FM121600 VRB03KT P6SM SCT060 TEMPO 1219/1301 P6SM -SHRA VCTS SCT040CB BKN060 RMK NXT FCST BY 121900Z

超过4000个机场的气象观测和天气预报(METAR&TAF报告)。

可查询的气象台以黄色和红色小点在地图上表示。

将鼠标移到小点上方,可查看气象台名称。

然后点击查看天气观测和预报。

如需切换地图:点击带黑十字的绿色按钮放大地图;点击带横线的绿色按钮缩小地图;或者点击绿色箭头查看邻近地区的地图。


METAR-TAF: